sensor_id;sensor_type;location;lat;lon;timestamp;P1;durP1;ratioP1;P2;durP2;ratioP2
7017;SDS011;3549;42.162;24.726;2023-02-28T00:00:49;24.03;;;11.90;;
7017;SDS011;3549;42.162;24.726;2023-02-28T00:03:14;26.33;;;12.50;;
7017;SDS011;3549;42.162;24.726;2023-02-28T00:05:40;25.17;;;13.57;;
7017;SDS011;3549;42.162;24.726;2023-02-28T00:08:06;25.70;;;12.23;;
7017;SDS011;3549;42.162;24.726;2023-02-28T00:10:32;24.60;;;12.40;;
7017;SDS011;3549;42.162;24.726;2023-02-28T00:13:02;23.90;;;12.43;;
7017;SDS011;3549;42.162;24.726;2023-02-28T00:15:29;23.53;;;11.33;;
7017;SDS011;3549;42.162;24.726;2023-02-28T00:17:55;24.27;;;11.83;;
7017;SDS011;3549;42.162;24.726;2023-02-28T00:20:21;23.53;;;11.80;;
7017;SDS011;3549;42.162;24.726;2023-02-28T00:22:50;24.00;;;11.40;;
7017;SDS011;3549;42.162;24.726;2023-02-28T00:25:19;25.40;;;12.37;;
7017;SDS011;3549;42.162;24.726;2023-02-28T00:27:47;25.13;;;11.90;;
7017;SDS011;3549;42.162;24.726;2023-02-28T00:30:14;23.47;;;11.93;;
7017;SDS011;3549;42.162;24.726;2023-02-28T00:32:41;23.70;;;11.83;;
7017;SDS011;3549;42.162;24.726;2023-02-28T00:35:07;23.57;;;11.30;;
7017;SDS011;3549;42.162;24.726;2023-02-28T00:37:33;22.53;;;11.60;;
7017;SDS011;3549;42.162;24.726;2023-02-28T00:39:59;22.00;;;10.97;;
7017;SDS011;3549;42.162;24.726;2023-02-28T00:42:24;24.20;;;11.50;;
7017;SDS011;3549;42.162;24.726;2023-02-28T00:44:50;22.27;;;11.43;;
7017;SDS011;3549;42.162;24.726;2023-02-28T00:47:15;23.30;;;12.60;;
7017;SDS011;3549;42.162;24.726;2023-02-28T00:49:41;23.60;;;11.87;;
7017;SDS011;3549;42.162;24.726;2023-02-28T00:52:06;24.63;;;11.13;;
7017;SDS011;3549;42.162;24.726;2023-02-28T00:54:32;21.90;;;11.07;;
7017;SDS011;3549;42.162;24.726;2023-02-28T00:56:58;24.67;;;13.30;;
7017;SDS011;3549;42.162;24.726;2023-02-28T00:59:23;27.97;;;13.83;;
7017;SDS011;3549;42.162;24.726;2023-02-28T01:01:49;25.67;;;12.53;;
7017;SDS011;3549;42.162;24.726;2023-02-28T01:04:14;22.77;;;11.90;;
7017;SDS011;3549;42.162;24.726;2023-02-28T01:06:40;21.90;;;11.63;;
7017;SDS011;3549;42.162;24.726;2023-02-28T01:09:07;25.27;;;11.67;;
7017;SDS011;3549;42.162;24.726;2023-02-28T01:11:33;25.87;;;11.83;;
7017;SDS011;3549;42.162;24.726;2023-02-28T01:13:58;24.53;;;12.13;;
7017;SDS011;3549;42.162;24.726;2023-02-28T01:16:24;24.00;;;10.80;;
7017;SDS011;3549;42.162;24.726;2023-02-28T01:18:50;23.87;;;10.23;;
7017;SDS011;3549;42.162;24.726;2023-02-28T01:21:16;22.63;;;11.17;;
7017;SDS011;3549;42.162;24.726;2023-02-28T01:23:44;18.20;;;10.43;;
7017;SDS011;3549;42.162;24.726;2023-02-28T01:26:10;22.10;;;11.20;;
7017;SDS011;3549;42.162;24.726;2023-02-28T01:28:44;21.73;;;11.00;;
7017;SDS011;3549;42.162;24.726;2023-02-28T01:31:10;22.03;;;10.80;;
7017;SDS011;3549;42.162;24.726;2023-02-28T01:33:36;18.50;;;9.60;;
7017;SDS011;3549;42.162;24.726;2023-02-28T01:36:06;22.63;;;10.67;;
7017;SDS011;3549;42.162;24.726;2023-02-28T01:38:35;21.50;;;10.03;;
7017;SDS011;3549;42.162;24.726;2023-02-28T01:41:01;20.30;;;9.77;;
7017;SDS011;3549;42.162;24.726;2023-02-28T01:43:27;22.13;;;9.80;;
7017;SDS011;3549;42.162;24.726;2023-02-28T01:45:55;23.00;;;10.17;;
7017;SDS011;3549;42.162;24.726;2023-02-28T01:48:23;20.43;;;9.73;;
7017;SDS011;3549;42.162;24.726;2023-02-28T01:50:52;23.47;;;10.03;;
7017;SDS011;3549;42.162;24.726;2023-02-28T01:53:26;19.40;;;9.70;;
7017;SDS011;3549;42.162;24.726;2023-02-28T01:55:57;21.03;;;10.00;;
7017;SDS011;3549;42.162;24.726;2023-02-28T01:58:23;20.73;;;9.07;;
7017;SDS011;3549;42.162;24.726;2023-02-28T02:00:49;17.70;;;8.73;;
7017;SDS011;3549;42.162;24.726;2023-02-28T02:03:15;19.03;;;9.37;;
7017;SDS011;3549;42.162;24.726;2023-02-28T02:05:44;20.10;;;9.13;;
7017;SDS011;3549;42.162;24.726;2023-02-28T02:08:23;18.23;;;9.13;;
7017;SDS011;3549;42.162;24.726;2023-02-28T02:10:57;29.73;;;18.07;;
7017;SDS011;3549;42.162;24.726;2023-02-28T02:13:28;22.10;;;9.10;;
7017;SDS011;3549;42.162;24.726;2023-02-28T02:16:04;22.60;;;9.30;;
7017;SDS011;3549;42.162;24.726;2023-02-28T02:18:53;18.47;;;10.30;;
7017;SDS011;3549;42.162;24.726;2023-02-28T02:24:00;20.40;;;9.73;;
7017;SDS011;3549;42.162;24.726;2023-02-28T02:32:13;21.07;;;10.70;;
7017;SDS011;3549;42.162;24.726;2023-02-28T02:35:00;22.10;;;10.67;;
7017;SDS011;3549;42.162;24.726;2023-02-28T02:37:52;24.80;;;11.83;;
7017;SDS011;3549;42.162;24.726;2023-02-28T02:40:43;24.70;;;11.53;;
7017;SDS011;3549;42.162;24.726;2023-02-28T02:45:45;24.13;;;11.80;;
7017;SDS011;3549;42.162;24.726;2023-02-28T02:48:16;23.87;;;11.80;;
7017;SDS011;3549;42.162;24.726;2023-02-28T02:51:04;23.03;;;11.73;;
7017;SDS011;3549;42.162;24.726;2023-02-28T02:54:00;27.77;;;12.03;;
7017;SDS011;3549;42.162;24.726;2023-02-28T02:56:30;23.30;;;12.13;;
7017;SDS011;3549;42.162;24.726;2023-02-28T02:59:06;26.87;;;12.07;;
7017;SDS011;3549;42.162;24.726;2023-02-28T03:01:34;27.10;;;12.23;;
7017;SDS011;3549;42.162;24.726;2023-02-28T03:04:03;24.63;;;11.63;;
7017;SDS011;3549;42.162;24.726;2023-02-28T03:06:32;25.10;;;12.30;;
7017;SDS011;3549;42.162;24.726;2023-02-28T03:08:57;24.67;;;12.30;;
7017;SDS011;3549;42.162;24.726;2023-02-28T03:11:25;24.33;;;11.53;;
7017;SDS011;3549;42.162;24.726;2023-02-28T03:19:54;28.60;;;12.33;;
7017;SDS011;3549;42.162;24.726;2023-02-28T03:28:08;29.33;;;13.07;;
7017;SDS011;3549;42.162;24.726;2023-02-28T03:33:19;27.50;;;13.13;;
7017;SDS011;3549;42.162;24.726;2023-02-28T03:35:56;25.27;;;13.30;;
7017;SDS011;3549;42.162;24.726;2023-02-28T03:38:37;30.50;;;13.23;;
7017;SDS011;3549;42.162;24.726;2023-02-28T03:41:22;27.33;;;13.17;;
7017;SDS011;3549;42.162;24.726;2023-02-28T03:43:53;32.77;;;14.30;;
7017;SDS011;3549;42.162;24.726;2023-02-28T03:46:22;29.10;;;13.80;;
7017;SDS011;3549;42.162;24.726;2023-02-28T03:48:52;33.20;;;14.67;;
7017;SDS011;3549;42.162;24.726;2023-02-28T03:51:23;28.07;;;13.67;;
7017;SDS011;3549;42.162;24.726;2023-02-28T03:53:52;31.30;;;14.30;;
7017;SDS011;3549;42.162;24.726;2023-02-28T03:56:26;32.73;;;14.33;;
7017;SDS011;3549;42.162;24.726;2023-02-28T03:59:02;28.83;;;13.67;;
7017;SDS011;3549;42.162;24.726;2023-02-28T04:04:03;30.30;;;15.20;;
7017;SDS011;3549;42.162;24.726;2023-02-28T04:06:30;31.47;;;15.07;;
7017;SDS011;3549;42.162;24.726;2023-02-28T04:08:57;31.60;;;14.77;;
7017;SDS011;3549;42.162;24.726;2023-02-28T04:14:05;33.33;;;15.23;;
7017;SDS011;3549;42.162;24.726;2023-02-28T04:16:33;29.57;;;14.70;;
7017;SDS011;3549;42.162;24.726;2023-02-28T04:19:00;29.63;;;13.67;;
7017;SDS011;3549;42.162;24.726;2023-02-28T04:21:30;29.70;;;13.47;;
7017;SDS011;3549;42.162;24.726;2023-02-28T04:23:57;28.80;;;13.50;;
7017;SDS011;3549;42.162;24.726;2023-02-28T04:26:27;27.40;;;12.23;;
7017;SDS011;3549;42.162;24.726;2023-02-28T04:28:54;26.53;;;12.33;;
7017;SDS011;3549;42.162;24.726;2023-02-28T04:31:20;26.57;;;12.83;;
7017;SDS011;3549;42.162;24.726;2023-02-28T04:33:45;26.70;;;12.97;;
7017;SDS011;3549;42.162;24.726;2023-02-28T04:36:11;30.73;;;13.40;;
7017;SDS011;3549;42.162;24.726;2023-02-28T04:38:37;27.07;;;13.27;;
7017;SDS011;3549;42.162;24.726;2023-02-28T04:41:04;25.67;;;13.57;;
7017;SDS011;3549;42.162;24.726;2023-02-28T04:43:30;28.93;;;13.37;;
7017;SDS011;3549;42.162;24.726;2023-02-28T04:45:56;27.77;;;13.27;;
7017;SDS011;3549;42.162;24.726;2023-02-28T04:48:24;30.60;;;13.60;;
7017;SDS011;3549;42.162;24.726;2023-02-28T04:50:50;27.63;;;13.70;;
7017;SDS011;3549;42.162;24.726;2023-02-28T04:53:17;25.93;;;12.00;;
7017;SDS011;3549;42.162;24.726;2023-02-28T04:55:42;23.37;;;12.80;;
7017;SDS011;3549;42.162;24.726;2023-02-28T04:58:08;27.70;;;13.10;;
7017;SDS011;3549;42.162;24.726;2023-02-28T05:00:33;25.17;;;12.60;;
7017;SDS011;3549;42.162;24.726;2023-02-28T05:02:59;25.53;;;12.17;;
7017;SDS011;3549;42.162;24.726;2023-02-28T05:05:25;28.87;;;13.73;;
7017;SDS011;3549;42.162;24.726;2023-02-28T05:07:50;24.77;;;12.37;;
7017;SDS011;3549;42.162;24.726;2023-02-28T05:10:16;26.90;;;13.20;;
7017;SDS011;3549;42.162;24.726;2023-02-28T05:12:41;23.47;;;12.30;;
7017;SDS011;3549;42.162;24.726;2023-02-28T05:15:07;25.97;;;12.67;;
7017;SDS011;3549;42.162;24.726;2023-02-28T05:17:37;28.27;;;13.37;;
7017;SDS011;3549;42.162;24.726;2023-02-28T05:20:03;27.80;;;12.40;;
7017;SDS011;3549;42.162;24.726;2023-02-28T05:22:29;27.40;;;13.20;;
7017;SDS011;3549;42.162;24.726;2023-02-28T05:24:55;26.30;;;12.60;;
7017;SDS011;3549;42.162;24.726;2023-02-28T05:27:20;27.93;;;13.27;;
7017;SDS011;3549;42.162;24.726;2023-02-28T05:29:46;29.40;;;13.80;;
7017;SDS011;3549;42.162;24.726;2023-02-28T05:32:12;24.00;;;13.33;;
7017;SDS011;3549;42.162;24.726;2023-02-28T05:34:38;25.30;;;12.90;;
7017;SDS011;3549;42.162;24.726;2023-02-28T05:37:04;26.17;;;14.00;;
7017;SDS011;3549;42.162;24.726;2023-02-28T05:39:31;26.80;;;12.70;;
7017;SDS011;3549;42.162;24.726;2023-02-28T05:41:58;26.77;;;12.70;;
7017;SDS011;3549;42.162;24.726;2023-02-28T05:44:24;28.83;;;12.40;;
7017;SDS011;3549;42.162;24.726;2023-02-28T05:46:50;24.57;;;12.80;;
7017;SDS011;3549;42.162;24.726;2023-02-28T05:49:15;28.37;;;13.33;;
7017;SDS011;3549;42.162;24.726;2023-02-28T05:51:40;27.50;;;13.07;;
7017;SDS011;3549;42.162;24.726;2023-02-28T05:54:06;33.80;;;13.57;;
7017;SDS011;3549;42.162;24.726;2023-02-28T05:56:32;25.20;;;12.53;;
7017;SDS011;3549;42.162;24.726;2023-02-28T05:59:00;22.20;;;11.43;;
7017;SDS011;3549;42.162;24.726;2023-02-28T06:01:31;28.30;;;12.43;;
7017;SDS011;3549;42.162;24.726;2023-02-28T06:04:01;22.50;;;12.03;;
7017;SDS011;3549;42.162;24.726;2023-02-28T06:06:28;25.87;;;12.53;;
7017;SDS011;3549;42.162;24.726;2023-02-28T06:08:59;23.83;;;11.03;;
7017;SDS011;3549;42.162;24.726;2023-02-28T06:11:25;23.90;;;12.43;;
7017;SDS011;3549;42.162;24.726;2023-02-28T06:13:58;22.47;;;12.07;;
7017;SDS011;3549;42.162;24.726;2023-02-28T06:16:25;23.43;;;11.97;;
7017;SDS011;3549;42.162;24.726;2023-02-28T06:18:52;28.53;;;12.93;;
7017;SDS011;3549;42.162;24.726;2023-02-28T06:21:20;25.47;;;12.30;;
7017;SDS011;3549;42.162;24.726;2023-02-28T06:23:46;25.17;;;13.30;;
7017;SDS011;3549;42.162;24.726;2023-02-28T06:26:11;24.97;;;12.23;;
7017;SDS011;3549;42.162;24.726;2023-02-28T06:28:36;28.43;;;13.80;;
7017;SDS011;3549;42.162;24.726;2023-02-28T06:31:09;26.13;;;13.13;;
7017;SDS011;3549;42.162;24.726;2023-02-28T06:33:36;28.80;;;13.03;;
7017;SDS011;3549;42.162;24.726;2023-02-28T06:36:02;25.47;;;13.40;;
7017;SDS011;3549;42.162;24.726;2023-02-28T06:38:29;28.13;;;13.47;;
7017;SDS011;3549;42.162;24.726;2023-02-28T06:40:55;28.07;;;13.87;;
7017;SDS011;3549;42.162;24.726;2023-02-28T06:43:22;28.10;;;14.10;;
7017;SDS011;3549;42.162;24.726;2023-02-28T06:45:48;32.37;;;14.33;;
7017;SDS011;3549;42.162;24.726;2023-02-28T06:48:14;29.07;;;13.53;;
7017;SDS011;3549;42.162;24.726;2023-02-28T06:50:39;27.90;;;13.37;;
7017;SDS011;3549;42.162;24.726;2023-02-28T06:53:04;29.23;;;13.53;;
7017;SDS011;3549;42.162;24.726;2023-02-28T06:55:30;29.30;;;13.50;;
7017;SDS011;3549;42.162;24.726;2023-02-28T06:57:56;30.13;;;14.50;;
7017;SDS011;3549;42.162;24.726;2023-02-28T07:00:22;29.60;;;13.73;;
7017;SDS011;3549;42.162;24.726;2023-02-28T07:02:48;25.93;;;13.23;;
7017;SDS011;3549;42.162;24.726;2023-02-28T07:05:13;28.90;;;13.80;;
7017;SDS011;3549;42.162;24.726;2023-02-28T07:07:39;27.53;;;13.10;;
7017;SDS011;3549;42.162;24.726;2023-02-28T07:10:09;24.93;;;12.57;;
7017;SDS011;3549;42.162;24.726;2023-02-28T07:12:37;29.20;;;13.33;;
7017;SDS011;3549;42.162;24.726;2023-02-28T07:15:04;31.20;;;13.60;;
7017;SDS011;3549;42.162;24.726;2023-02-28T07:17:30;30.83;;;13.83;;
7017;SDS011;3549;42.162;24.726;2023-02-28T07:19:56;31.33;;;14.37;;
7017;SDS011;3549;42.162;24.726;2023-02-28T07:22:21;31.87;;;15.27;;
7017;SDS011;3549;42.162;24.726;2023-02-28T07:24:47;35.13;;;16.93;;
7017;SDS011;3549;42.162;24.726;2023-02-28T07:27:12;30.00;;;15.37;;
7017;SDS011;3549;42.162;24.726;2023-02-28T07:29:50;37.93;;;17.40;;
7017;SDS011;3549;42.162;24.726;2023-02-28T07:32:16;35.03;;;15.13;;
7017;SDS011;3549;42.162;24.726;2023-02-28T07:34:42;36.20;;;15.73;;
7017;SDS011;3549;42.162;24.726;2023-02-28T07:37:07;32.80;;;16.47;;
7017;SDS011;3549;42.162;24.726;2023-02-28T07:39:33;34.73;;;15.97;;
7017;SDS011;3549;42.162;24.726;2023-02-28T07:41:58;36.70;;;16.70;;
7017;SDS011;3549;42.162;24.726;2023-02-28T07:44:24;36.67;;;16.13;;
7017;SDS011;3549;42.162;24.726;2023-02-28T07:46:50;40.00;;;17.83;;
7017;SDS011;3549;42.162;24.726;2023-02-28T07:49:16;42.53;;;17.33;;
7017;SDS011;3549;42.162;24.726;2023-02-28T07:51:41;37.53;;;17.03;;
7017;SDS011;3549;42.162;24.726;2023-02-28T07:54:07;36.33;;;17.47;;
7017;SDS011;3549;42.162;24.726;2023-02-28T07:56:32;36.13;;;16.70;;
7017;SDS011;3549;42.162;24.726;2023-02-28T07:58:58;42.30;;;17.93;;
7017;SDS011;3549;42.162;24.726;2023-02-28T08:01:23;39.70;;;18.07;;
7017;SDS011;3549;42.162;24.726;2023-02-28T08:03:49;44.87;;;18.27;;
7017;SDS011;3549;42.162;24.726;2023-02-28T08:06:16;41.60;;;18.13;;
7017;SDS011;3549;42.162;24.726;2023-02-28T08:08:43;39.87;;;18.43;;
7017;SDS011;3549;42.162;24.726;2023-02-28T08:11:09;40.33;;;18.20;;
7017;SDS011;3549;42.162;24.726;2023-02-28T08:13:34;40.60;;;18.83;;
7017;SDS011;3549;42.162;24.726;2023-02-28T08:16:01;38.17;;;18.57;;
7017;SDS011;3549;42.162;24.726;2023-02-28T08:18:27;33.70;;;17.33;;
7017;SDS011;3549;42.162;24.726;2023-02-28T08:20:52;39.43;;;18.10;;
7017;SDS011;3549;42.162;24.726;2023-02-28T08:23:17;38.00;;;17.33;;
7017;SDS011;3549;42.162;24.726;2023-02-28T08:25:43;37.70;;;16.77;;
7017;SDS011;3549;42.162;24.726;2023-02-28T08:28:08;37.30;;;17.70;;
7017;SDS011;3549;42.162;24.726;2023-02-28T08:30:34;39.80;;;18.10;;
7017;SDS011;3549;42.162;24.726;2023-02-28T08:32:59;39.70;;;18.07;;
7017;SDS011;3549;42.162;24.726;2023-02-28T08:35:26;38.00;;;17.40;;
7017;SDS011;3549;42.162;24.726;2023-02-28T08:37:52;39.80;;;19.40;;
7017;SDS011;3549;42.162;24.726;2023-02-28T08:40:17;37.07;;;18.37;;
7017;SDS011;3549;42.162;24.726;2023-02-28T08:42:45;37.23;;;18.50;;
7017;SDS011;3549;42.162;24.726;2023-02-28T08:45:12;39.73;;;19.00;;
7017;SDS011;3549;42.162;24.726;2023-02-28T08:47:39;43.60;;;20.97;;
7017;SDS011;3549;42.162;24.726;2023-02-28T08:50:04;43.83;;;19.47;;
7017;SDS011;3549;42.162;24.726;2023-02-28T08:52:31;42.37;;;20.23;;
7017;SDS011;3549;42.162;24.726;2023-02-28T08:54:56;37.00;;;18.47;;
7017;SDS011;3549;42.162;24.726;2023-02-28T08:57:22;36.07;;;17.13;;
7017;SDS011;3549;42.162;24.726;2023-02-28T08:59:47;42.37;;;21.17;;
7017;SDS011;3549;42.162;24.726;2023-02-28T09:02:13;39.83;;;18.97;;
7017;SDS011;3549;42.162;24.726;2023-02-28T09:04:39;36.97;;;18.03;;
7017;SDS011;3549;42.162;24.726;2023-02-28T09:07:05;36.37;;;17.70;;
7017;SDS011;3549;42.162;24.726;2023-02-28T09:09:31;38.17;;;18.50;;
7017;SDS011;3549;42.162;24.726;2023-02-28T09:11:56;36.33;;;18.27;;
7017;SDS011;3549;42.162;24.726;2023-02-28T09:14:22;39.07;;;18.43;;
7017;SDS011;3549;42.162;24.726;2023-02-28T09:16:48;36.40;;;19.87;;
7017;SDS011;3549;42.162;24.726;2023-02-28T09:19:13;39.90;;;19.93;;
7017;SDS011;3549;42.162;24.726;2023-02-28T09:21:39;41.23;;;19.43;;
7017;SDS011;3549;42.162;24.726;2023-02-28T09:24:05;39.33;;;19.27;;
7017;SDS011;3549;42.162;24.726;2023-02-28T09:26:31;46.33;;;22.33;;
7017;SDS011;3549;42.162;24.726;2023-02-28T09:28:56;45.17;;;21.80;;
7017;SDS011;3549;42.162;24.726;2023-02-28T09:31:25;43.40;;;20.87;;
7017;SDS011;3549;42.162;24.726;2023-02-28T09:33:53;42.97;;;19.93;;
7017;SDS011;3549;42.162;24.726;2023-02-28T09:36:20;52.03;;;24.23;;
7017;SDS011;3549;42.162;24.726;2023-02-28T09:38:47;53.10;;;24.57;;
7017;SDS011;3549;42.162;24.726;2023-02-28T09:41:17;61.43;;;28.87;;
7017;SDS011;3549;42.162;24.726;2023-02-28T09:43:58;50.43;;;24.50;;
7017;SDS011;3549;42.162;24.726;2023-02-28T09:46:44;54.17;;;25.00;;
7017;SDS011;3549;42.162;24.726;2023-02-28T09:49:14;54.53;;;24.20;;
7017;SDS011;3549;42.162;24.726;2023-02-28T09:51:52;44.30;;;20.57;;
7017;SDS011;3549;42.162;24.726;2023-02-28T09:54:19;46.27;;;23.23;;
7017;SDS011;3549;42.162;24.726;2023-02-28T09:56:53;47.30;;;23.20;;
7017;SDS011;3549;42.162;24.726;2023-02-28T10:02:21;61.83;;;29.63;;
7017;SDS011;3549;42.162;24.726;2023-02-28T10:15:59;49.90;;;24.53;;
7017;SDS011;3549;42.162;24.726;2023-02-28T10:18:45;52.27;;;24.63;;
7017;SDS011;3549;42.162;24.726;2023-02-28T10:21:36;52.97;;;24.07;;
7017;SDS011;3549;42.162;24.726;2023-02-28T10:24:35;45.43;;;21.50;;
7017;SDS011;3549;42.162;24.726;2023-02-28T10:29:40;49.60;;;22.37;;
7017;SDS011;3549;42.162;24.726;2023-02-28T10:32:09;48.27;;;22.03;;
7017;SDS011;3549;42.162;24.726;2023-02-28T10:34:39;45.67;;;21.43;;
7017;SDS011;3549;42.162;24.726;2023-02-28T10:37:04;44.70;;;21.87;;
7017;SDS011;3549;42.162;24.726;2023-02-28T10:39:37;48.97;;;22.57;;
7017;SDS011;3549;42.162;24.726;2023-02-28T10:42:29;47.93;;;21.57;;
7017;SDS011;3549;42.162;24.726;2023-02-28T10:45:10;51.20;;;22.23;;
7017;SDS011;3549;42.162;24.726;2023-02-28T10:47:56;50.30;;;23.23;;
7017;SDS011;3549;42.162;24.726;2023-02-28T10:53:03;51.67;;;24.03;;
7017;SDS011;3549;42.162;24.726;2023-02-28T10:55:41;56.40;;;23.57;;
7017;SDS011;3549;42.162;24.726;2023-02-28T10:58:28;48.57;;;23.30;;
7017;SDS011;3549;42.162;24.726;2023-02-28T11:00:54;53.23;;;23.87;;
7017;SDS011;3549;42.162;24.726;2023-02-28T11:03:24;54.23;;;23.80;;
7017;SDS011;3549;42.162;24.726;2023-02-28T11:06:21;51.67;;;24.13;;
7017;SDS011;3549;42.162;24.726;2023-02-28T11:08:54;62.47;;;24.77;;
7017;SDS011;3549;42.162;24.726;2023-02-28T11:11:22;53.07;;;23.77;;
7017;SDS011;3549;42.162;24.726;2023-02-28T11:13:51;54.87;;;24.63;;
7017;SDS011;3549;42.162;24.726;2023-02-28T11:16:19;57.67;;;25.93;;
7017;SDS011;3549;42.162;24.726;2023-02-28T11:21:19;52.77;;;25.27;;
7017;SDS011;3549;42.162;24.726;2023-02-28T11:23:49;55.70;;;24.33;;
7017;SDS011;3549;42.162;24.726;2023-02-28T11:26:17;54.50;;;23.87;;
7017;SDS011;3549;42.162;24.726;2023-02-28T11:29:03;53.23;;;24.17;;
7017;SDS011;3549;42.162;24.726;2023-02-28T11:31:35;53.43;;;25.13;;
7017;SDS011;3549;42.162;24.726;2023-02-28T11:34:01;50.07;;;23.93;;
7017;SDS011;3549;42.162;24.726;2023-02-28T11:36:28;53.93;;;24.27;;
7017;SDS011;3549;42.162;24.726;2023-02-28T11:38:56;60.47;;;30.57;;
7017;SDS011;3549;42.162;24.726;2023-02-28T11:41:30;52.37;;;25.17;;
7017;SDS011;3549;42.162;24.726;2023-02-28T11:55:31;56.53;;;24.90;;
7017;SDS011;3549;42.162;24.726;2023-02-28T12:11:54;62.30;;;31.57;;
7017;SDS011;3549;42.162;24.726;2023-02-28T12:22:31;65.23;;;29.50;;
7017;SDS011;3549;42.162;24.726;2023-02-28T12:28:02;62.03;;;27.67;;
7017;SDS011;3549;42.162;24.726;2023-02-28T12:30:30;61.83;;;28.60;;
7017;SDS011;3549;42.162;24.726;2023-02-28T12:38:29;63.80;;;27.27;;
7017;SDS011;3549;42.162;24.726;2023-02-28T12:41:02;59.60;;;26.77;;
7017;SDS011;3549;42.162;24.726;2023-02-28T12:43:43;61.37;;;26.07;;
7017;SDS011;3549;42.162;24.726;2023-02-28T12:51:11;63.27;;;28.87;;
7017;SDS011;3549;42.162;24.726;2023-02-28T13:04:56;62.30;;;28.40;;
7017;SDS011;3549;42.162;24.726;2023-02-28T13:07:45;58.87;;;28.10;;
7017;SDS011;3549;42.162;24.726;2023-02-28T13:10:39;57.70;;;26.97;;
7017;SDS011;3549;42.162;24.726;2023-02-28T13:13:11;64.93;;;29.00;;
7017;SDS011;3549;42.162;24.726;2023-02-28T13:15:41;56.60;;;26.77;;
7017;SDS011;3549;42.162;24.726;2023-02-28T13:18:35;59.00;;;26.53;;
7017;SDS011;3549;42.162;24.726;2023-02-28T13:21:06;62.57;;;28.10;;
7017;SDS011;3549;42.162;24.726;2023-02-28T13:26:22;70.63;;;29.87;;
7017;SDS011;3549;42.162;24.726;2023-02-28T13:39:58;74.07;;;31.20;;
7017;SDS011;3549;42.162;24.726;2023-02-28T13:47:36;60.20;;;27.03;;
7017;SDS011;3549;42.162;24.726;2023-02-28T13:50:26;63.50;;;28.63;;
7017;SDS011;3549;42.162;24.726;2023-02-28T14:06:31;65.27;;;33.20;;
7017;SDS011;3549;42.162;24.726;2023-02-28T14:11:42;64.00;;;30.97;;
7017;SDS011;3549;42.162;24.726;2023-02-28T14:14:10;66.43;;;30.30;;
7017;SDS011;3549;42.162;24.726;2023-02-28T14:17:03;52.93;;;26.17;;
7017;SDS011;3549;42.162;24.726;2023-02-28T14:19:32;56.67;;;26.97;;
7017;SDS011;3549;42.162;24.726;2023-02-28T14:33:18;51.47;;;24.83;;
7017;SDS011;3549;42.162;24.726;2023-02-28T14:36:06;43.60;;;21.93;;
7017;SDS011;3549;42.162;24.726;2023-02-28T14:38:53;47.60;;;23.23;;
7017;SDS011;3549;42.162;24.726;2023-02-28T14:43:51;44.50;;;24.07;;
7017;SDS011;3549;42.162;24.726;2023-02-28T14:46:21;50.63;;;25.17;;
7017;SDS011;3549;42.162;24.726;2023-02-28T14:48:50;53.80;;;27.23;;
7017;SDS011;3549;42.162;24.726;2023-02-28T14:51:22;44.70;;;22.30;;
7017;SDS011;3549;42.162;24.726;2023-02-28T14:53:50;53.83;;;26.83;;
7017;SDS011;3549;42.162;24.726;2023-02-28T14:56:21;46.83;;;25.33;;
7017;SDS011;3549;42.162;24.726;2023-02-28T14:58:53;44.77;;;24.23;;
7017;SDS011;3549;42.162;24.726;2023-02-28T15:01:21;49.00;;;26.40;;
7017;SDS011;3549;42.162;24.726;2023-02-28T15:03:48;49.50;;;26.60;;
7017;SDS011;3549;42.162;24.726;2023-02-28T15:06:21;50.50;;;24.53;;
7017;SDS011;3549;42.162;24.726;2023-02-28T15:08:48;47.37;;;25.20;;
7017;SDS011;3549;42.162;24.726;2023-02-28T15:11:35;48.90;;;24.10;;
7017;SDS011;3549;42.162;24.726;2023-02-28T15:14:02;52.00;;;28.73;;
7017;SDS011;3549;42.162;24.726;2023-02-28T15:16:30;47.93;;;24.53;;
7017;SDS011;3549;42.162;24.726;2023-02-28T15:19:00;57.90;;;30.73;;
7017;SDS011;3549;42.162;24.726;2023-02-28T15:21:31;52.43;;;27.50;;
7017;SDS011;3549;42.162;24.726;2023-02-28T15:27:04;53.87;;;29.93;;
7017;SDS011;3549;42.162;24.726;2023-02-28T15:29:34;51.47;;;26.60;;
7017;SDS011;3549;42.162;24.726;2023-02-28T15:32:20;42.47;;;21.00;;
7017;SDS011;3549;42.162;24.726;2023-02-28T15:34:49;40.17;;;20.90;;
7017;SDS011;3549;42.162;24.726;2023-02-28T15:39:55;50.47;;;25.70;;
7017;SDS011;3549;42.162;24.726;2023-02-28T15:42:27;39.27;;;19.73;;
7017;SDS011;3549;42.162;24.726;2023-02-28T15:44:54;43.50;;;22.03;;
7017;SDS011;3549;42.162;24.726;2023-02-28T15:47:20;45.33;;;23.10;;
7017;SDS011;3549;42.162;24.726;2023-02-28T15:49:49;44.37;;;21.23;;
7017;SDS011;3549;42.162;24.726;2023-02-28T15:52:24;51.50;;;26.10;;
7017;SDS011;3549;42.162;24.726;2023-02-28T15:54:56;39.73;;;19.87;;
7017;SDS011;3549;42.162;24.726;2023-02-28T15:57:27;46.00;;;22.17;;
7017;SDS011;3549;42.162;24.726;2023-02-28T16:00:00;48.37;;;22.53;;
7017;SDS011;3549;42.162;24.726;2023-02-28T16:02:37;43.63;;;20.83;;
7017;SDS011;3549;42.162;24.726;2023-02-28T16:07:35;50.40;;;22.17;;
7017;SDS011;3549;42.162;24.726;2023-02-28T16:10:05;51.63;;;24.20;;
7017;SDS011;3549;42.162;24.726;2023-02-28T16:12:32;52.83;;;24.90;;
7017;SDS011;3549;42.162;24.726;2023-02-28T16:15:00;55.30;;;25.10;;
7017;SDS011;3549;42.162;24.726;2023-02-28T16:17:31;49.13;;;21.97;;
7017;SDS011;3549;42.162;24.726;2023-02-28T16:19:59;48.70;;;23.17;;
7017;SDS011;3549;42.162;24.726;2023-02-28T16:22:24;47.90;;;23.90;;
7017;SDS011;3549;42.162;24.726;2023-02-28T16:24:50;51.33;;;23.57;;
7017;SDS011;3549;42.162;24.726;2023-02-28T16:27:35;55.30;;;25.00;;
7017;SDS011;3549;42.162;24.726;2023-02-28T16:30:03;49.73;;;24.80;;
7017;SDS011;3549;42.162;24.726;2023-02-28T16:32:30;46.03;;;21.90;;
7017;SDS011;3549;42.162;24.726;2023-02-28T16:34:59;50.97;;;22.00;;
7017;SDS011;3549;42.162;24.726;2023-02-28T16:37:26;48.00;;;22.57;;
7017;SDS011;3549;42.162;24.726;2023-02-28T16:39:52;48.77;;;23.03;;
7017;SDS011;3549;42.162;24.726;2023-02-28T16:42:25;86.17;;;33.57;;
7017;SDS011;3549;42.162;24.726;2023-02-28T16:44:53;54.00;;;25.63;;
7017;SDS011;3549;42.162;24.726;2023-02-28T16:47:20;48.23;;;23.13;;
7017;SDS011;3549;42.162;24.726;2023-02-28T16:49:45;48.70;;;24.17;;
7017;SDS011;3549;42.162;24.726;2023-02-28T16:52:12;47.30;;;23.53;;
7017;SDS011;3549;42.162;24.726;2023-02-28T16:54:39;51.03;;;25.13;;
7017;SDS011;3549;42.162;24.726;2023-02-28T16:57:06;47.53;;;24.20;;
7017;SDS011;3549;42.162;24.726;2023-02-28T16:59:40;52.13;;;24.53;;
7017;SDS011;3549;42.162;24.726;2023-02-28T17:02:10;64.03;;;28.47;;
7017;SDS011;3549;42.162;24.726;2023-02-28T17:04:47;43.10;;;20.47;;
7017;SDS011;3549;42.162;24.726;2023-02-28T17:07:14;52.50;;;25.40;;
7017;SDS011;3549;42.162;24.726;2023-02-28T17:09:41;47.80;;;22.00;;
7017;SDS011;3549;42.162;24.726;2023-02-28T17:12:07;48.53;;;23.10;;
7017;SDS011;3549;42.162;24.726;2023-02-28T17:14:33;41.13;;;20.47;;
7017;SDS011;3549;42.162;24.726;2023-02-28T17:16:59;47.27;;;21.10;;
7017;SDS011;3549;42.162;24.726;2023-02-28T17:19:24;47.03;;;21.63;;
7017;SDS011;3549;42.162;24.726;2023-02-28T17:21:50;46.50;;;22.10;;
7017;SDS011;3549;42.162;24.726;2023-02-28T17:24:15;44.97;;;21.63;;
7017;SDS011;3549;42.162;24.726;2023-02-28T17:26:41;47.37;;;22.40;;
7017;SDS011;3549;42.162;24.726;2023-02-28T17:29:25;51.27;;;22.87;;
7017;SDS011;3549;42.162;24.726;2023-02-28T17:31:51;56.43;;;26.47;;
7017;SDS011;3549;42.162;24.726;2023-02-28T17:34:16;65.03;;;27.27;;
7017;SDS011;3549;42.162;24.726;2023-02-28T17:36:49;49.03;;;22.27;;